• Join FlightAware (Why Join?)
  • Login
  • US Flag 
10:59AM EDT


 

Airport Tracker/Info


-or-


 

Live Flight TrackerFlight Track Log ✈ EJA583 ✈ 17-Jul-2013 ✈ KBFI - KPDX

Flight Track Log - Related Links

Times and Time Zones

All times are in EDT time to prevent confusion due to time zone crossing. See the EJA583 flight status page for this flight to view local times or setup timezone preferences in your user account.

Time Position Orientation Groundspeed Altitude Reporting Facility
EDT Latitude Longitude Course Direction KTS MPH feet Rate Location/Type
10:19AM 47.5125 -122.2906 142° Southeast 171 197 1,500  Level Seattle Center
10:21AM 47.4492 -122.2167 142° Southeast 210 242 3,900 960 Climbing Seattle Center
10:22AM 47.3814 -122.1681 154° Southeast 256 295 4,000 780 Climbing Seattle Center
10:23AM 47.3178 -122.1878 192° South 245 282 5,600 2,040 Climbing Seattle Center
10:24AM 47.2533 -122.2456 211° Southwest 270 311 8,300 2,580 Climbing Seattle Center
10:25AM 47.1811 -122.3014 208° Southwest 291 335 10,900 1,320 Climbing Seattle Center
10:26AM 47.0878 -122.3150 186° South 339 390 11,000  Climbing Seattle Center
10:27AM 46.9922 -122.3231 183° South 342 394 11,000  Level Seattle Center
10:28AM 46.8917 -122.3317 183° South 336 387 11,000  Level Seattle Center
10:29AM 46.7989 -122.3394 183° South 334 384 11,000  Level Seattle Center
10:30AM 46.7183 -122.3467 184° South 333 383 11,000  Level Seattle Center
10:31AM 46.6092 -122.3569 184° South 330 380 11,000  Level Seattle Center
10:32AM 46.5181 -122.3653 184° South 330 380 11,000  Level Seattle Center
10:33AM 46.4239 -122.3756 184° South 342 394 11,100  Climbing Seattle Center
10:34AM 46.3300 -122.3850 184° South 342 394 11,000 -60 Descending Seattle Center
10:35AM 46.2364 -122.3928 183° South 341 392 11,000 -300 Level Seattle Center
10:36AM 46.1508 -122.3969 182° South 317 365 10,500 -960 Descending Seattle Center
10:37AM 46.0742 -122.4094 186° South 281 323 9,100 -1,380 Descending Seattle Center
10:38AM 46.0053 -122.4522 203° Southwest 272 313 7,700 -1,320 Descending Seattle Center
10:39AM 45.9578 -122.5322 230° Southwest 264 304 6,500 -840 Descending Seattle Center
10:40AM 45.9047 -122.6186 229° Southwest 246 283 6,000 -540 Descending Seattle Center
10:41AM 45.8628 -122.6964 232° Southwest 247 284 5,500 -1,080 Descending Seattle Center
10:42AM 45.8069 -122.7536 216° Southwest 252 290 3,900 -1,380 Descending Seattle Center
10:43AM 45.7436 -122.7928 203° Southwest 254 292 2,800 -660 Descending Seattle Center
10:44AM 45.6822 -122.7997 185° South 214 246 2,500 -180 Descending Seattle Center
10:45AM 45.6517 -122.7442 128° Southeast 166 191 2,500 -480 Level Seattle Center
10:46AM 45.6361 -122.7008 117° Southeast 180 207 1,700 -840 Descending Seattle Center
10:47AM 45.6169 -122.6547 121° Southeast 160 184 1,000 -420 Descending Seattle Center
10:48AM 45.5975 -122.6075 120° Southeast 156 180 900 -120 Descending Seattle Center
10:50AM 45.5887 -122.5969 137° Southeast  Level Estimated